Weather History for Spearfish, SD

Change the Weather History Date:

Monday, January 9, 2012

  Actual Average (KEFC) Record (KEFC)
Temperature  
Mean Temperature 45 °F -  
Max Temperature 53 °F 28 °F 66 °F (1953)
Min Temperature 37 °F 3 °F -25 °F (1977)
Degree Days  
Heating Degree Days 20    
Moisture  
Dew Point 25 °F    
Average Humidity 47    
Maximum Humidity 60    
Minimum Humidity 33    
Precipitation  
Precipitation 0.00 in - - ()
Sea Level Pressure  
Sea Level Pressure 30.09 in    
Wind  
Wind Speed 14 mph (West)    
Max Wind Speed 20 mph    
Max Gust Speed 26 mph    
Visibility 10 miles    
Events      
Averages and records for this station are not official NWS values.
T = Trace of Precipitation, MM = Missing Value Source: NWS Daily Summary

Daily Weather History Graph

Daily Weather History Graph

Search for Another Location

Airport:

Trip Planner

Search our weather history database for the weather conditions in past years. The results will help you decide how hot, cold, wet, or windy it might be!

Date:

Astronomy

Jan. 09, 2012 Rise Set
Actual Time 8:30 AM CST 5:33 PM CST
Civil Twilight 7:57 AM CST 6:06 PM CST
Nautical Twilight 7:21 AM CST 6:43 PM CST
Astronomical Twilight 6:46 AM CST 7:18 PM CST
Moon 6:25 PM CST (1/9) 8:30 AM CST (1/9)
Length of Visible Light 10h 08m
Length of Day
9h 03m
Full, 100% of the Moon is Illuminated
Jan 9
Full
Jan 16
Last Quarter
Jan 23
New
Jan 30
First Quarter
Feb 7
Full

Hourly Weather History & Observations

Time (CST) Temp. Windchill Dew Point Humidity Pressure Visibility Wind Dir Wind Speed Gust Speed Precip Events Conditions
12:15 AM 39.2 °F 31.6 °F 21.2 °F 49% 30.07 in 10.0 mi West 12.7 mph 18.4 mph N/A   Clear
12:35 AM 41.0 °F 33.1 °F 23.0 °F 49% 30.06 in 10.0 mi West 15.0 mph 24.2 mph N/A   Clear
12:55 AM 39.2 °F 30.8 °F 23.0 °F 52% 30.07 in 10.0 mi West 15.0 mph 21.9 mph N/A   Clear
1:15 AM 41.0 °F 32.8 °F 23.0 °F 49% 30.07 in 10.0 mi West 16.1 mph 24.2 mph N/A   Clear
1:35 AM 41.0 °F 32.5 °F 23.0 °F 49% 30.07 in 10.0 mi West 17.3 mph 23.0 mph N/A   Clear
1:55 AM 41.0 °F 33.9 °F 23.0 °F 49% 30.08 in 10.0 mi West 12.7 mph 23.0 mph N/A   Clear
2:15 AM 39.2 °F 30.5 °F 23.0 °F 52% 30.09 in 10.0 mi West 16.1 mph 21.9 mph N/A   Clear
2:35 AM 39.2 °F 31.2 °F 23.0 °F 52% 30.09 in 10.0 mi West 13.8 mph - N/A   Clear
2:55 AM 39.2 °F 30.5 °F 23.0 °F 52% 30.10 in 10.0 mi West 16.1 mph 20.7 mph N/A   Clear
3:15 AM 39.2 °F 30.2 °F 24.8 °F 56% 30.11 in 10.0 mi West 17.3 mph - N/A   Clear
3:35 AM 39.2 °F 30.5 °F 24.8 °F 56% 30.11 in 10.0 mi West 16.1 mph 20.7 mph N/A   Clear
3:55 AM 39.2 °F 32.5 °F 24.8 °F 56% 30.12 in 10.0 mi West 10.4 mph - N/A   Clear
4:15 AM 39.2 °F 32.5 °F 24.8 °F 56% 30.11 in 10.0 mi WSW 10.4 mph - N/A   Clear
4:35 AM 39.2 °F 30.8 °F 24.8 °F 56% 30.10 in 10.0 mi WSW 15.0 mph - N/A   Clear
4:55 AM 41.0 °F 33.9 °F 24.8 °F 53% 30.11 in 10.0 mi WSW 12.7 mph 19.6 mph N/A   Clear
5:15 AM 39.2 °F 32.0 °F 24.8 °F 56% 30.10 in 10.0 mi West 11.5 mph 19.6 mph N/A   Clear
5:35 AM 39.2 °F 32.5 °F 24.8 °F 56% 30.11 in 10.0 mi West 10.4 mph - N/A   Clear
5:55 AM 39.2 °F 32.0 °F 24.8 °F 56% 30.11 in 10.0 mi West 11.5 mph - N/A   Clear
6:15 AM 37.4 °F 29.8 °F 24.8 °F 60% 30.10 in 10.0 mi West 11.5 mph - N/A   Clear
6:35 AM 39.2 °F 32.0 °F 24.8 °F 56% 30.11 in 10.0 mi West 11.5 mph - N/A   Clear
6:55 AM 39.2 °F 31.6 °F 24.8 °F 56% 30.11 in 10.0 mi WSW 12.7 mph - N/A   Clear
7:15 AM 39.2 °F 32.0 °F 24.8 °F 56% 30.11 in 10.0 mi WSW 11.5 mph - N/A   Clear
7:35 AM 39.2 °F 30.8 °F 24.8 °F 56% 30.11 in 10.0 mi WSW 15.0 mph - N/A   Clear
7:55 AM 39.2 °F 31.6 °F 24.8 °F 56% 30.11 in 10.0 mi WSW 12.7 mph - N/A   Clear
8:15 AM 39.2 °F 31.6 °F 24.8 °F 56% 30.11 in 10.0 mi WSW 12.7 mph - N/A   Clear
8:35 AM 39.2 °F 31.6 °F 24.8 °F 56% 30.11 in 10.0 mi West 12.7 mph - N/A   Clear
8:55 AM 41.0 °F 33.5 °F 24.8 °F 53% 30.12 in 10.0 mi WSW 13.8 mph - N/A   Clear
9:15 AM 41.0 °F 33.5 °F 24.8 °F 53% 30.12 in 10.0 mi West 13.8 mph - N/A   Clear
9:35 AM 44.6 °F 38.1 °F 26.6 °F 49% 30.12 in 10.0 mi West 13.8 mph - N/A   Clear
10:15 AM 48.2 °F - 26.6 °F 43% 30.13 in 10.0 mi West 19.6 mph 26.5 mph N/A   Clear
10:35 AM 48.2 °F - 26.6 °F 43% 30.13 in 10.0 mi West 16.1 mph 21.9 mph N/A   Clear
10:55 AM 48.2 °F - 26.6 °F 43% 30.13 in 10.0 mi West 18.4 mph 25.3 mph N/A   Clear
11:15 AM 50.0 °F - 26.6 °F 40% 30.13 in 10.0 mi West 15.0 mph 23.0 mph N/A   Clear
11:35 AM 50.0 °F - 26.6 °F 40% 30.13 in 10.0 mi WNW 12.7 mph 24.2 mph N/A   Clear
11:55 AM 51.8 °F - 26.6 °F 38% 30.12 in 10.0 mi WNW 13.8 mph 23.0 mph N/A   Clear
12:15 PM 51.8 °F - 26.6 °F 38% 30.11 in 10.0 mi West 18.4 mph 25.3 mph N/A   Clear
12:35 PM 51.8 °F - 26.6 °F 38% 30.10 in 10.0 mi West 18.4 mph 25.3 mph N/A   Clear
12:55 PM 53.6 °F - 26.6 °F 35% 30.09 in 10.0 mi West 16.1 mph 20.7 mph N/A   Clear
1:15 PM 53.6 °F - 26.6 °F 35% 30.09 in 10.0 mi West 16.1 mph 20.7 mph N/A   Clear
1:55 PM 53.6 °F - 26.6 °F 35% 30.08 in 10.0 mi West 15.0 mph 21.9 mph N/A   Clear
2:15 PM 53.6 °F - 26.6 °F 35% 30.07 in 10.0 mi West 16.1 mph 21.9 mph N/A   Clear
2:35 PM 53.6 °F - 24.8 °F 33% 30.07 in 10.0 mi West 12.7 mph 19.6 mph N/A   Clear
2:55 PM 53.6 °F - 24.8 °F 33% 30.06 in 10.0 mi West 16.1 mph - N/A   Clear
3:15 PM 53.6 °F - 24.8 °F 33% 30.06 in 10.0 mi West 16.1 mph 21.9 mph N/A   Clear
3:35 PM 53.6 °F - 24.8 °F 33% 30.06 in 10.0 mi West 13.8 mph 17.3 mph N/A   Clear
3:55 PM 53.6 °F - 24.8 °F 33% 30.06 in 10.0 mi WNW 11.5 mph 20.7 mph N/A   Clear
4:15 PM 53.6 °F - 24.8 °F 33% 30.07 in 10.0 mi West 12.7 mph 18.4 mph N/A   Clear
4:35 PM 51.8 °F - 24.8 °F 35% 30.06 in 10.0 mi West 10.4 mph - N/A   Clear
4:55 PM 50.0 °F - 24.8 °F 37% 30.06 in 10.0 mi West 11.5 mph - N/A   Clear
5:15 PM 48.2 °F - 24.8 °F 40% 30.05 in 10.0 mi West 11.5 mph - N/A   Clear
5:35 PM 44.6 °F 39.2 °F 24.8 °F 46% 30.04 in 10.0 mi West 10.4 mph - N/A   Clear
5:55 PM 46.4 °F 41.1 °F 24.8 °F 43% 30.04 in 10.0 mi West 11.5 mph - N/A   Clear
6:15 PM 46.4 °F 41.5 °F 24.8 °F 43% 30.03 in 10.0 mi West 10.4 mph 19.6 mph N/A   Clear
6:35 PM 46.4 °F 41.5 °F 24.8 °F 43% 30.03 in 10.0 mi West 10.4 mph 17.3 mph N/A   Clear
6:55 PM 48.2 °F - 24.8 °F 40% 30.02 in 10.0 mi West 15.0 mph 20.7 mph N/A   Clear
7:15 PM 46.4 °F 40.1 °F 24.8 °F 43% 30.02 in 10.0 mi WSW 15.0 mph 24.2 mph N/A   Clear
7:35 PM 46.4 °F 40.4 °F 24.8 °F 43% 30.02 in 10.0 mi WSW 13.8 mph 20.7 mph N/A   Clear
7:55 PM 48.2 °F - 24.8 °F 40% 30.02 in 10.0 mi West 15.0 mph 19.6 mph N/A   Clear
8:15 PM 48.2 °F - 23.0 °F 37% 30.02 in 10.0 mi WSW 13.8 mph 21.9 mph N/A   Clear
8:35 PM 48.2 °F - 23.0 °F 37% 30.02 in 10.0 mi West 13.8 mph 18.4 mph N/A   Clear
8:55 PM 48.2 °F - 23.0 °F 37% 30.02 in 10.0 mi West 13.8 mph - N/A   Clear
9:15 PM 46.4 °F 41.5 °F 23.0 °F 40% 30.03 in 10.0 mi WSW 10.4 mph - N/A   Clear
9:35 PM 48.2 °F - 23.0 °F 37% 30.02 in 10.0 mi West 12.7 mph - N/A   Clear
9:55 PM 46.4 °F 41.1 °F 23.0 °F 40% 30.02 in 10.0 mi West 11.5 mph - N/A   Clear
10:15 PM 48.2 °F - 23.0 °F 37% 30.02 in 10.0 mi WSW 15.0 mph 18.4 mph N/A   Clear
10:35 PM 48.2 °F - 23.0 °F 37% 30.02 in 10.0 mi WSW 16.1 mph - N/A   Clear
10:55 PM 48.2 °F - 23.0 °F 37% 30.02 in 10.0 mi WSW 15.0 mph 21.9 mph N/A   Clear
11:15 PM 48.2 °F - 23.0 °F 37% 30.02 in 10.0 mi WSW 15.0 mph - N/A   Clear
11:35 PM 48.2 °F - 23.0 °F 37% 30.02 in 10.0 mi West 10.4 mph - N/A   Clear
11:55 PM 46.4 °F 40.7 °F 23.0 °F 40% 30.02 in 10.0 mi WSW 12.7 mph 18.4 mph N/A   Clear